sensor_id;sensor_type;location;lat;lon;timestamp;temperature;humidity
51613;DHT22;37694;51.748;14.326;2022-08-03T00:02:22;23.60;39.20
51613;DHT22;37694;51.748;14.326;2022-08-03T00:04:47;23.60;39.10
51613;DHT22;37694;51.748;14.326;2022-08-03T00:07:13;23.50;39.00
51613;DHT22;37694;51.748;14.326;2022-08-03T00:09:38;23.50;39.10
51613;DHT22;37694;51.748;14.326;2022-08-03T00:12:04;23.50;39.30
51613;DHT22;37694;51.748;14.326;2022-08-03T00:14:30;23.50;39.30
51613;DHT22;37694;51.748;14.326;2022-08-03T00:16:56;23.50;39.10
51613;DHT22;37694;51.748;14.326;2022-08-03T00:19:22;23.50;39.10
51613;DHT22;37694;51.748;14.326;2022-08-03T00:21:48;23.50;39.20
51613;DHT22;37694;51.748;14.326;2022-08-03T00:24:13;23.40;39.20
51613;DHT22;37694;51.748;14.326;2022-08-03T00:26:39;23.40;39.30
51613;DHT22;37694;51.748;14.326;2022-08-03T00:29:04;23.40;39.20
51613;DHT22;37694;51.748;14.326;2022-08-03T00:31:30;23.40;39.10
51613;DHT22;37694;51.748;14.326;2022-08-03T00:33:55;23.40;39.20
51613;DHT22;37694;51.748;14.326;2022-08-03T00:36:21;23.40;39.20
51613;DHT22;37694;51.748;14.326;2022-08-03T00:38:47;23.30;39.20
51613;DHT22;37694;51.748;14.326;2022-08-03T00:41:12;23.30;39.10
51613;DHT22;37694;51.748;14.326;2022-08-03T00:43:38;23.30;39.00
51613;DHT22;37694;51.748;14.326;2022-08-03T00:46:03;23.30;39.20
51613;DHT22;37694;51.748;14.326;2022-08-03T00:48:29;23.30;39.00
51613;DHT22;37694;51.748;14.326;2022-08-03T00:50:55;23.30;39.20
51613;DHT22;37694;51.748;14.326;2022-08-03T00:53:20;23.30;39.20
51613;DHT22;37694;51.748;14.326;2022-08-03T00:55:46;23.30;39.20
51613;DHT22;37694;51.748;14.326;2022-08-03T00:58:12;23.30;39.20
51613;DHT22;37694;51.748;14.326;2022-08-03T01:00:39;23.30;40.10
51613;DHT22;37694;51.748;14.326;2022-08-03T01:03:07;23.20;39.00
51613;DHT22;37694;51.748;14.326;2022-08-03T01:08:35;23.20;39.00
51613;DHT22;37694;51.748;14.326;2022-08-03T01:11:18;23.20;39.00
51613;DHT22;37694;51.748;14.326;2022-08-03T01:14:15;23.10;39.20
51613;DHT22;37694;51.748;14.326;2022-08-03T01:17:12;23.10;39.30
51613;DHT22;37694;51.748;14.326;2022-08-03T01:19:55;23.20;39.20
51613;DHT22;37694;51.748;14.326;2022-08-03T01:25:45;23.10;39.30
51613;DHT22;37694;51.748;14.326;2022-08-03T01:30:52;23.10;39.30
51613;DHT22;37694;51.748;14.326;2022-08-03T01:33:30;23.00;39.40
51613;DHT22;37694;51.748;14.326;2022-08-03T01:36:01;23.00;39.40
51613;DHT22;37694;51.748;14.326;2022-08-03T01:38:33;23.00;39.20
51613;DHT22;37694;51.748;14.326;2022-08-03T01:41:20;23.00;39.30
51613;DHT22;37694;51.748;14.326;2022-08-03T01:43:48;23.00;39.30
51613;DHT22;37694;51.748;14.326;2022-08-03T01:46:16;23.00;39.40
51613;DHT22;37694;51.748;14.326;2022-08-03T01:48:44;23.00;39.30
51613;DHT22;37694;51.748;14.326;2022-08-03T01:51:11;23.00;39.40
51613;DHT22;37694;51.748;14.326;2022-08-03T01:53:39;23.00;39.50
51613;DHT22;37694;51.748;14.326;2022-08-03T01:56:07;23.00;39.40
51613;DHT22;37694;51.748;14.326;2022-08-03T01:58:35;23.00;39.40
51613;DHT22;37694;51.748;14.326;2022-08-03T02:01:02;22.90;39.30
51613;DHT22;37694;51.748;14.326;2022-08-03T02:03:31;23.00;39.50
51613;DHT22;37694;51.748;14.326;2022-08-03T02:05:59;22.90;39.30
51613;DHT22;37694;51.748;14.326;2022-08-03T02:08:26;22.90;39.40
51613;DHT22;37694;51.748;14.326;2022-08-03T02:10:56;22.90;39.30
51613;DHT22;37694;51.748;14.326;2022-08-03T02:13:23;22.90;39.30
51613;DHT22;37694;51.748;14.326;2022-08-03T02:15:50;22.90;39.30
51613;DHT22;37694;51.748;14.326;2022-08-03T02:18:17;22.80;39.40
51613;DHT22;37694;51.748;14.326;2022-08-03T02:20:45;22.80;39.30
51613;DHT22;37694;51.748;14.326;2022-08-03T02:23:14;22.90;39.30
51613;DHT22;37694;51.748;14.326;2022-08-03T02:25:50;22.90;39.40
51613;DHT22;37694;51.748;14.326;2022-08-03T02:28:19;22.80;39.40
51613;DHT22;37694;51.748;14.326;2022-08-03T02:30:50;22.80;39.40
51613;DHT22;37694;51.748;14.326;2022-08-03T02:33:20;22.80;39.40
51613;DHT22;37694;51.748;14.326;2022-08-03T02:35:49;22.80;39.50
51613;DHT22;37694;51.748;14.326;2022-08-03T02:38:18;22.80;39.40
51613;DHT22;37694;51.748;14.326;2022-08-03T02:40:44;22.80;39.30
51613;DHT22;37694;51.748;14.326;2022-08-03T02:43:15;22.80;39.40
51613;DHT22;37694;51.748;14.326;2022-08-03T02:45:44;22.80;39.30
51613;DHT22;37694;51.748;14.326;2022-08-03T02:48:11;22.80;39.30
51613;DHT22;37694;51.748;14.326;2022-08-03T02:50:41;22.80;39.30
51613;DHT22;37694;51.748;14.326;2022-08-03T02:53:08;22.80;39.20
51613;DHT22;37694;51.748;14.326;2022-08-03T02:55:34;22.80;39.10
51613;DHT22;37694;51.748;14.326;2022-08-03T02:58:02;22.80;39.20
51613;DHT22;37694;51.748;14.326;2022-08-03T03:00:30;22.80;39.40
51613;DHT22;37694;51.748;14.326;2022-08-03T03:02:57;22.70;39.40
51613;DHT22;37694;51.748;14.326;2022-08-03T03:05:24;22.80;39.30
51613;DHT22;37694;51.748;14.326;2022-08-03T03:07:50;22.80;39.30
51613;DHT22;37694;51.748;14.326;2022-08-03T03:10:15;22.70;39.30
51613;DHT22;37694;51.748;14.326;2022-08-03T03:12:41;22.70;39.30
51613;DHT22;37694;51.748;14.326;2022-08-03T03:15:07;22.70;39.30
51613;DHT22;37694;51.748;14.326;2022-08-03T03:17:34;22.70;39.30
51613;DHT22;37694;51.748;14.326;2022-08-03T03:20:02;22.70;39.40
51613;DHT22;37694;51.748;14.326;2022-08-03T03:22:30;22.60;39.30
51613;DHT22;37694;51.748;14.326;2022-08-03T03:24:57;22.60;39.50
51613;DHT22;37694;51.748;14.326;2022-08-03T03:27:23;22.60;39.40
51613;DHT22;37694;51.748;14.326;2022-08-03T03:29:49;22.60;39.30
51613;DHT22;37694;51.748;14.326;2022-08-03T03:32:15;22.60;39.30
51613;DHT22;37694;51.748;14.326;2022-08-03T03:34:41;22.60;39.40
51613;DHT22;37694;51.748;14.326;2022-08-03T03:37:07;22.60;39.40
51613;DHT22;37694;51.748;14.326;2022-08-03T03:39:33;22.60;39.40
51613;DHT22;37694;51.748;14.326;2022-08-03T03:42:01;22.60;39.40
51613;DHT22;37694;51.748;14.326;2022-08-03T03:44:28;22.60;39.40
51613;DHT22;37694;51.748;14.326;2022-08-03T03:46:55;22.50;39.30
51613;DHT22;37694;51.748;14.326;2022-08-03T03:49:20;22.60;39.20
51613;DHT22;37694;51.748;14.326;2022-08-03T03:51:46;22.50;39.30
51613;DHT22;37694;51.748;14.326;2022-08-03T03:54:11;22.50;39.30
51613;DHT22;37694;51.748;14.326;2022-08-03T03:56:37;22.60;40.20
51613;DHT22;37694;51.748;14.326;2022-08-03T03:59:03;22.50;39.20
51613;DHT22;37694;51.748;14.326;2022-08-03T04:01:29;22.60;39.30
51613;DHT22;37694;51.748;14.326;2022-08-03T04:03:55;22.50;39.20
51613;DHT22;37694;51.748;14.326;2022-08-03T04:06:20;22.50;39.30
51613;DHT22;37694;51.748;14.326;2022-08-03T04:09:05;22.50;39.40
51613;DHT22;37694;51.748;14.326;2022-08-03T04:11:53;22.50;39.30
51613;DHT22;37694;51.748;14.326;2022-08-03T04:14:25;22.50;39.30
51613;DHT22;37694;51.748;14.326;2022-08-03T04:16:55;22.50;39.40
51613;DHT22;37694;51.748;14.326;2022-08-03T04:19:29;22.50;39.30
51613;DHT22;37694;51.748;14.326;2022-08-03T04:21:59;22.50;39.30
51613;DHT22;37694;51.748;14.326;2022-08-03T04:24:33;22.50;39.30
51613;DHT22;37694;51.748;14.326;2022-08-03T04:27:02;22.40;39.30
51613;DHT22;37694;51.748;14.326;2022-08-03T04:29:30;22.40;39.30
51613;DHT22;37694;51.748;14.326;2022-08-03T04:31:58;22.40;39.40
51613;DHT22;37694;51.748;14.326;2022-08-03T04:34:25;22.40;39.30
51613;DHT22;37694;51.748;14.326;2022-08-03T04:36:56;22.40;39.40
51613;DHT22;37694;51.748;14.326;2022-08-03T04:39:23;22.40;39.40
51613;DHT22;37694;51.748;14.326;2022-08-03T04:41:53;22.40;39.50
51613;DHT22;37694;51.748;14.326;2022-08-03T04:44:21;22.40;39.40
51613;DHT22;37694;51.748;14.326;2022-08-03T04:46:48;22.40;39.40
51613;DHT22;37694;51.748;14.326;2022-08-03T04:49:14;22.50;39.50
51613;DHT22;37694;51.748;14.326;2022-08-03T04:51:40;22.40;39.40
51613;DHT22;37694;51.748;14.326;2022-08-03T04:54:11;22.50;39.70
51613;DHT22;37694;51.748;14.326;2022-08-03T04:56:39;22.50;39.90
51613;DHT22;37694;51.748;14.326;2022-08-03T04:59:06;22.60;40.10
51613;DHT22;37694;51.748;14.326;2022-08-03T05:01:31;22.70;40.00
51613;DHT22;37694;51.748;14.326;2022-08-03T05:03:57;22.80;40.20
51613;DHT22;37694;51.748;14.326;2022-08-03T05:06:23;22.90;40.30
51613;DHT22;37694;51.748;14.326;2022-08-03T05:08:49;22.90;40.20
51613;DHT22;37694;51.748;14.326;2022-08-03T05:11:15;23.00;40.50
51613;DHT22;37694;51.748;14.326;2022-08-03T05:13:41;23.00;40.60
51613;DHT22;37694;51.748;14.326;2022-08-03T05:16:06;23.10;40.70
51613;DHT22;37694;51.748;14.326;2022-08-03T05:18:32;23.10;40.80
51613;DHT22;37694;51.748;14.326;2022-08-03T05:20:58;23.20;40.80
51613;DHT22;37694;51.748;14.326;2022-08-03T05:23:23;23.20;40.80
51613;DHT22;37694;51.748;14.326;2022-08-03T05:25:49;23.30;41.10
51613;DHT22;37694;51.748;14.326;2022-08-03T05:28:14;23.30;41.30
51613;DHT22;37694;51.748;14.326;2022-08-03T05:30:40;23.30;41.40
51613;DHT22;37694;51.748;14.326;2022-08-03T05:33:05;23.40;41.60
51613;DHT22;37694;51.748;14.326;2022-08-03T05:35:32;23.50;41.70
51613;DHT22;37694;51.748;14.326;2022-08-03T05:37:59;23.50;41.90
51613;DHT22;37694;51.748;14.326;2022-08-03T05:40:25;23.50;41.90
51613;DHT22;37694;51.748;14.326;2022-08-03T05:42:51;23.60;41.90
51613;DHT22;37694;51.748;14.326;2022-08-03T05:45:16;23.60;42.10
51613;DHT22;37694;51.748;14.326;2022-08-03T05:47:45;23.60;42.20
51613;DHT22;37694;51.748;14.326;2022-08-03T05:50:12;23.70;42.30
51613;DHT22;37694;51.748;14.326;2022-08-03T05:52:39;23.70;42.40
51613;DHT22;37694;51.748;14.326;2022-08-03T05:55:08;23.70;43.30
51613;DHT22;37694;51.748;14.326;2022-08-03T05:57:34;23.70;44.30
51613;DHT22;37694;51.748;14.326;2022-08-03T06:00:05;23.70;43.80
51613;DHT22;37694;51.748;14.326;2022-08-03T06:02:31;23.80;43.70
51613;DHT22;37694;51.748;14.326;2022-08-03T06:04:57;23.80;43.90
51613;DHT22;37694;51.748;14.326;2022-08-03T06:07:23;23.80;44.50
51613;DHT22;37694;51.748;14.326;2022-08-03T06:09:48;23.80;44.70
51613;DHT22;37694;51.748;14.326;2022-08-03T06:12:14;23.80;45.10
51613;DHT22;37694;51.748;14.326;2022-08-03T06:14:40;23.70;43.70
51613;DHT22;37694;51.748;14.326;2022-08-03T06:17:05;23.50;43.50
51613;DHT22;37694;51.748;14.326;2022-08-03T06:19:31;23.30;43.70
51613;DHT22;37694;51.748;14.326;2022-08-03T06:21:57;23.10;43.30
51613;DHT22;37694;51.748;14.326;2022-08-03T06:24:22;23.00;43.30
51613;DHT22;37694;51.748;14.326;2022-08-03T06:26:48;22.90;43.00
51613;DHT22;37694;51.748;14.326;2022-08-03T06:29:13;22.80;43.70
51613;DHT22;37694;51.748;14.326;2022-08-03T06:31:39;22.70;44.00
51613;DHT22;37694;51.748;14.326;2022-08-03T06:34:05;22.70;44.20
51613;DHT22;37694;51.748;14.326;2022-08-03T06:36:31;22.70;44.60
51613;DHT22;37694;51.748;14.326;2022-08-03T06:38:57;22.70;45.00
51613;DHT22;37694;51.748;14.326;2022-08-03T06:41:24;22.70;45.20
51613;DHT22;37694;51.748;14.326;2022-08-03T06:43:49;22.60;45.30
51613;DHT22;37694;51.748;14.326;2022-08-03T06:46:15;22.60;45.30
51613;DHT22;37694;51.748;14.326;2022-08-03T06:48:40;22.60;45.40
51613;DHT22;37694;51.748;14.326;2022-08-03T06:51:06;22.60;45.30
51613;DHT22;37694;51.748;14.326;2022-08-03T06:53:32;22.50;45.50
51613;DHT22;37694;51.748;14.326;2022-08-03T06:55:57;22.50;45.70
51613;DHT22;37694;51.748;14.326;2022-08-03T06:58:23;22.50;45.80
51613;DHT22;37694;51.748;14.326;2022-08-03T07:00:49;22.50;45.90
51613;DHT22;37694;51.748;14.326;2022-08-03T07:03:15;22.50;46.00
51613;DHT22;37694;51.748;14.326;2022-08-03T07:05:41;22.50;46.20
51613;DHT22;37694;51.748;14.326;2022-08-03T07:08:08;22.50;46.20
51613;DHT22;37694;51.748;14.326;2022-08-03T07:10:33;22.50;46.30
51613;DHT22;37694;51.748;14.326;2022-08-03T07:12:59;22.50;46.40
51613;DHT22;37694;51.748;14.326;2022-08-03T07:15:24;22.50;46.40
51613;DHT22;37694;51.748;14.326;2022-08-03T07:17:50;22.50;46.50
51613;DHT22;37694;51.748;14.326;2022-08-03T07:20:15;22.50;46.20
51613;DHT22;37694;51.748;14.326;2022-08-03T07:22:43;22.40;46.40
51613;DHT22;37694;51.748;14.326;2022-08-03T07:25:09;22.40;46.60
51613;DHT22;37694;51.748;14.326;2022-08-03T07:27:35;22.40;46.60
51613;DHT22;37694;51.748;14.326;2022-08-03T07:30:05;22.40;46.70
51613;DHT22;37694;51.748;14.326;2022-08-03T07:32:31;22.40;46.90
51613;DHT22;37694;51.748;14.326;2022-08-03T07:34:56;22.40;47.00
51613;DHT22;37694;51.748;14.326;2022-08-03T07:37:22;22.40;47.10
51613;DHT22;37694;51.748;14.326;2022-08-03T07:39:48;22.40;47.00
51613;DHT22;37694;51.748;14.326;2022-08-03T07:42:14;22.40;47.30
51613;DHT22;37694;51.748;14.326;2022-08-03T07:44:39;22.40;47.40
51613;DHT22;37694;51.748;14.326;2022-08-03T07:47:05;22.40;47.50
51613;DHT22;37694;51.748;14.326;2022-08-03T07:49:31;22.40;46.90
51613;DHT22;37694;51.748;14.326;2022-08-03T07:51:57;22.40;47.20
51613;DHT22;37694;51.748;14.326;2022-08-03T07:54:41;22.40;47.50
51613;DHT22;37694;51.748;14.326;2022-08-03T07:57:06;22.40;47.60
51613;DHT22;37694;51.748;14.326;2022-08-03T07:59:32;22.40;47.60
51613;DHT22;37694;51.748;14.326;2022-08-03T08:01:59;22.40;47.80
51613;DHT22;37694;51.748;14.326;2022-08-03T08:04:25;22.40;47.80
51613;DHT22;37694;51.748;14.326;2022-08-03T08:06:50;22.50;47.80
51613;DHT22;37694;51.748;14.326;2022-08-03T08:09:16;22.50;48.00
51613;DHT22;37694;51.748;14.326;2022-08-03T08:11:42;22.50;47.80
51613;DHT22;37694;51.748;14.326;2022-08-03T08:14:07;22.50;47.80
51613;DHT22;37694;51.748;14.326;2022-08-03T08:16:34;22.50;47.80
51613;DHT22;37694;51.748;14.326;2022-08-03T08:18:59;22.50;47.60
51613;DHT22;37694;51.748;14.326;2022-08-03T08:21:26;22.40;47.80
51613;DHT22;37694;51.748;14.326;2022-08-03T08:23:52;22.50;48.00
51613;DHT22;37694;51.748;14.326;2022-08-03T08:26:17;22.40;48.00
51613;DHT22;37694;51.748;14.326;2022-08-03T08:28:43;22.50;48.20
51613;DHT22;37694;51.748;14.326;2022-08-03T08:31:08;22.50;48.10
51613;DHT22;37694;51.748;14.326;2022-08-03T08:33:34;22.50;48.30
51613;DHT22;37694;51.748;14.326;2022-08-03T08:36:00;22.50;48.40
51613;DHT22;37694;51.748;14.326;2022-08-03T08:38:26;22.50;48.50
51613;DHT22;37694;51.748;14.326;2022-08-03T08:40:54;22.50;48.60
51613;DHT22;37694;51.748;14.326;2022-08-03T08:43:20;22.50;48.70
51613;DHT22;37694;51.748;14.326;2022-08-03T08:45:48;22.50;48.80
51613;DHT22;37694;51.748;14.326;2022-08-03T08:48:22;22.50;48.90
51613;DHT22;37694;51.748;14.326;2022-08-03T08:50:52;22.50;48.70
51613;DHT22;37694;51.748;14.326;2022-08-03T08:53:19;22.50;48.80
51613;DHT22;37694;51.748;14.326;2022-08-03T08:55:46;22.50;48.90
51613;DHT22;37694;51.748;14.326;2022-08-03T08:58:13;22.50;49.10
51613;DHT22;37694;51.748;14.326;2022-08-03T09:00:43;22.60;49.00
51613;DHT22;37694;51.748;14.326;2022-08-03T09:03:10;22.60;49.10
51613;DHT22;37694;51.748;14.326;2022-08-03T09:05:36;22.60;49.30
51613;DHT22;37694;51.748;14.326;2022-08-03T09:08:04;22.50;49.20
51613;DHT22;37694;51.748;14.326;2022-08-03T09:10:30;22.60;49.20
51613;DHT22;37694;51.748;14.326;2022-08-03T09:12:56;22.60;48.90
51613;DHT22;37694;51.748;14.326;2022-08-03T09:15:24;22.60;48.70
51613;DHT22;37694;51.748;14.326;2022-08-03T09:17:52;22.60;48.60
51613;DHT22;37694;51.748;14.326;2022-08-03T09:20:19;22.60;48.20
51613;DHT22;37694;51.748;14.326;2022-08-03T09:25:25;22.60;48.20
51613;DHT22;37694;51.748;14.326;2022-08-03T09:27:51;22.60;48.10
51613;DHT22;37694;51.748;14.326;2022-08-03T09:30:18;22.50;48.10
51613;DHT22;37694;51.748;14.326;2022-08-03T09:32:43;22.50;48.00
51613;DHT22;37694;51.748;14.326;2022-08-03T09:35:11;22.60;48.10
51613;DHT22;37694;51.748;14.326;2022-08-03T09:37:37;22.60;48.40
51613;DHT22;37694;51.748;14.326;2022-08-03T09:40:04;22.60;48.70
51613;DHT22;37694;51.748;14.326;2022-08-03T09:42:30;22.60;48.90
51613;DHT22;37694;51.748;14.326;2022-08-03T09:44:59;22.60;49.00
51613;DHT22;37694;51.748;14.326;2022-08-03T09:47:31;22.70;49.30
51613;DHT22;37694;51.748;14.326;2022-08-03T09:49:59;22.70;48.90
51613;DHT22;37694;51.748;14.326;2022-08-03T09:52:34;22.70;48.90
51613;DHT22;37694;51.748;14.326;2022-08-03T09:55:00;22.70;48.40
51613;DHT22;37694;51.748;14.326;2022-08-03T09:57:27;22.60;48.10
51613;DHT22;37694;51.748;14.326;2022-08-03T10:00:11;22.60;47.80
51613;DHT22;37694;51.748;14.326;2022-08-03T10:02:38;22.60;47.10
51613;DHT22;37694;51.748;14.326;2022-08-03T10:05:05;22.60;46.50
51613;DHT22;37694;51.748;14.326;2022-08-03T10:07:43;22.60;46.20
51613;DHT22;37694;51.748;14.326;2022-08-03T10:10:09;22.60;45.90
51613;DHT22;37694;51.748;14.326;2022-08-03T10:12:36;22.60;45.90
51613;DHT22;37694;51.748;14.326;2022-08-03T10:15:02;22.70;45.80
51613;DHT22;37694;51.748;14.326;2022-08-03T10:17:28;22.70;45.40
51613;DHT22;37694;51.748;14.326;2022-08-03T10:19:53;22.70;45.20
51613;DHT22;37694;51.748;14.326;2022-08-03T10:22:25;22.70;44.80
51613;DHT22;37694;51.748;14.326;2022-08-03T10:27:36;22.80;44.20
51613;DHT22;37694;51.748;14.326;2022-08-03T10:30:05;22.80;44.30
51613;DHT22;37694;51.748;14.326;2022-08-03T10:35:04;22.80;43.90
51613;DHT22;37694;51.748;14.326;2022-08-03T10:37:33;22.80;44.00
51613;DHT22;37694;51.748;14.326;2022-08-03T10:40:01;22.90;44.00
51613;DHT22;37694;51.748;14.326;2022-08-03T10:42:28;22.90;43.80
51613;DHT22;37694;51.748;14.326;2022-08-03T10:45:06;22.90;43.60
51613;DHT22;37694;51.748;14.326;2022-08-03T10:47:34;23.00;43.40
51613;DHT22;37694;51.748;14.326;2022-08-03T10:50:01;23.00;43.60
51613;DHT22;37694;51.748;14.326;2022-08-03T10:52:27;23.00;43.50
51613;DHT22;37694;51.748;14.326;2022-08-03T10:54:53;23.00;43.50
51613;DHT22;37694;51.748;14.326;2022-08-03T10:57:48;23.00;43.40
51613;DHT22;37694;51.748;14.326;2022-08-03T11:00:16;23.00;43.10
51613;DHT22;37694;51.748;14.326;2022-08-03T11:05:35;23.10;42.70
51613;DHT22;37694;51.748;14.326;2022-08-03T11:10:44;23.10;42.50
51613;DHT22;37694;51.748;14.326;2022-08-03T11:13:10;23.10;42.80
51613;DHT22;37694;51.748;14.326;2022-08-03T11:15:39;23.10;42.70
51613;DHT22;37694;51.748;14.326;2022-08-03T11:18:10;23.10;42.50
51613;DHT22;37694;51.748;14.326;2022-08-03T11:20:52;23.20;42.60
51613;DHT22;37694;51.748;14.326;2022-08-03T11:23:47;23.20;42.30
51613;DHT22;37694;51.748;14.326;2022-08-03T11:26:19;23.20;42.20
51613;DHT22;37694;51.748;14.326;2022-08-03T11:28:47;23.20;42.40
51613;DHT22;37694;51.748;14.326;2022-08-03T11:34:10;23.30;42.10
51613;DHT22;37694;51.748;14.326;2022-08-03T11:39:44;23.20;41.90
51613;DHT22;37694;51.748;14.326;2022-08-03T11:44:58;23.30;42.00
51613;DHT22;37694;51.748;14.326;2022-08-03T11:47:26;23.20;42.00
51613;DHT22;37694;51.748;14.326;2022-08-03T11:49:56;23.20;42.10
51613;DHT22;37694;51.748;14.326;2022-08-03T11:52:25;23.20;41.90
51613;DHT22;37694;51.748;14.326;2022-08-03T11:54:52;23.30;42.00
51613;DHT22;37694;51.748;14.326;2022-08-03T11:57:31;23.20;41.90
51613;DHT22;37694;51.748;14.326;2022-08-03T11:59:57;23.30;41.80
51613;DHT22;37694;51.748;14.326;2022-08-03T12:02:23;23.30;41.90
51613;DHT22;37694;51.748;14.326;2022-08-03T12:07:15;23.30;41.80
51613;DHT22;37694;51.748;14.326;2022-08-03T12:09:42;23.30;41.80
51613;DHT22;37694;51.748;14.326;2022-08-03T12:12:08;23.30;41.80
51613;DHT22;37694;51.748;14.326;2022-08-03T12:14:33;23.30;41.70
51613;DHT22;37694;51.748;14.326;2022-08-03T12:16:59;23.30;41.80
51613;DHT22;37694;51.748;14.326;2022-08-03T12:19:24;23.30;41.70
51613;DHT22;37694;51.748;14.326;2022-08-03T12:21:50;23.30;41.50
51613;DHT22;37694;51.748;14.326;2022-08-03T12:24:16;23.30;41.40
51613;DHT22;37694;51.748;14.326;2022-08-03T12:26:49;23.30;41.40
51613;DHT22;37694;51.748;14.326;2022-08-03T12:29:22;23.40;41.30
51613;DHT22;37694;51.748;14.326;2022-08-03T12:31:50;23.40;41.50
51613;DHT22;37694;51.748;14.326;2022-08-03T12:34:15;23.30;41.40
51613;DHT22;37694;51.748;14.326;2022-08-03T12:36:52;23.30;41.50
51613;DHT22;37694;51.748;14.326;2022-08-03T12:39:22;23.40;41.20
51613;DHT22;37694;51.748;14.326;2022-08-03T12:41:52;23.30;41.30
51613;DHT22;37694;51.748;14.326;2022-08-03T12:44:31;23.40;41.20
51613;DHT22;37694;51.748;14.326;2022-08-03T12:46:58;23.40;41.90
51613;DHT22;37694;51.748;14.326;2022-08-03T12:49:24;23.40;41.20
51613;DHT22;37694;51.748;14.326;2022-08-03T12:54:17;23.40;41.10
51613;DHT22;37694;51.748;14.326;2022-08-03T12:57:18;23.40;41.00
51613;DHT22;37694;51.748;14.326;2022-08-03T12:59:45;23.40;40.70
51613;DHT22;37694;51.748;14.326;2022-08-03T13:04:42;23.50;41.20
51613;DHT22;37694;51.748;14.326;2022-08-03T13:07:10;23.50;41.00
51613;DHT22;37694;51.748;14.326;2022-08-03T13:09:47;23.60;40.90
51613;DHT22;37694;51.748;14.326;2022-08-03T13:12:17;23.60;40.60
51613;DHT22;37694;51.748;14.326;2022-08-03T13:14:45;23.60;40.70
51613;DHT22;37694;51.748;14.326;2022-08-03T13:17:11;23.60;40.70
51613;DHT22;37694;51.748;14.326;2022-08-03T13:19:38;23.50;40.50
51613;DHT22;37694;51.748;14.326;2022-08-03T13:22:15;23.60;40.70
51613;DHT22;37694;51.748;14.326;2022-08-03T13:24:42;23.60;40.30
51613;DHT22;37694;51.748;14.326;2022-08-03T13:27:08;23.60;40.40
51613;DHT22;37694;51.748;14.326;2022-08-03T13:29:34;23.60;40.40
51613;DHT22;37694;51.748;14.326;2022-08-03T13:32:00;23.60;40.40
51613;DHT22;37694;51.748;14.326;2022-08-03T13:34:26;23.60;40.10
51613;DHT22;37694;51.748;14.326;2022-08-03T13:36:52;23.70;40.20
51613;DHT22;37694;51.748;14.326;2022-08-03T13:39:18;23.70;40.30
51613;DHT22;37694;51.748;14.326;2022-08-03T13:41:47;23.70;40.30
51613;DHT22;37694;51.748;14.326;2022-08-03T13:44:13;23.70;40.20
51613;DHT22;37694;51.748;14.326;2022-08-03T13:46:39;23.70;40.20
51613;DHT22;37694;51.748;14.326;2022-08-03T13:49:05;23.70;40.20
51613;DHT22;37694;51.748;14.326;2022-08-03T13:51:31;23.70;40.20
51613;DHT22;37694;51.748;14.326;2022-08-03T13:53:57;23.70;40.20
51613;DHT22;37694;51.748;14.326;2022-08-03T13:56:25;23.70;40.00
51613;DHT22;37694;51.748;14.326;2022-08-03T13:58:51;23.70;40.00
51613;DHT22;37694;51.748;14.326;2022-08-03T14:01:17;23.70;40.10
51613;DHT22;37694;51.748;14.326;2022-08-03T14:03:42;23.70;39.90
51613;DHT22;37694;51.748;14.326;2022-08-03T14:06:08;23.70;40.00
51613;DHT22;37694;51.748;14.326;2022-08-03T14:08:34;23.70;40.30
51613;DHT22;37694;51.748;14.326;2022-08-03T14:10:59;23.70;40.90
51613;DHT22;37694;51.748;14.326;2022-08-03T14:13:25;23.70;41.00
51613;DHT22;37694;51.748;14.326;2022-08-03T14:15:51;23.70;40.90
51613;DHT22;37694;51.748;14.326;2022-08-03T14:18:20;23.70;41.20
51613;DHT22;37694;51.748;14.326;2022-08-03T14:20:47;23.80;41.80
51613;DHT22;37694;51.748;14.326;2022-08-03T14:23:13;24.00;41.50
51613;DHT22;37694;51.748;14.326;2022-08-03T14:25:38;24.10;41.40
51613;DHT22;37694;51.748;14.326;2022-08-03T14:28:06;24.20;41.40
51613;DHT22;37694;51.748;14.326;2022-08-03T14:30:32;24.30;41.40
51613;DHT22;37694;51.748;14.326;2022-08-03T14:32:58;24.40;41.30
51613;DHT22;37694;51.748;14.326;2022-08-03T14:35:23;24.40;41.20
51613;DHT22;37694;51.748;14.326;2022-08-03T14:37:49;24.50;41.10
51613;DHT22;37694;51.748;14.326;2022-08-03T14:40:16;24.50;41.00
51613;DHT22;37694;51.748;14.326;2022-08-03T14:42:42;24.60;41.20
51613;DHT22;37694;51.748;14.326;2022-08-03T14:45:08;24.60;41.10
51613;DHT22;37694;51.748;14.326;2022-08-03T14:47:33;24.70;41.20
51613;DHT22;37694;51.748;14.326;2022-08-03T14:49:59;24.70;41.20
51613;DHT22;37694;51.748;14.326;2022-08-03T14:52:25;24.70;41.20
51613;DHT22;37694;51.748;14.326;2022-08-03T14:54:50;24.80;42.10
51613;DHT22;37694;51.748;14.326;2022-08-03T14:57:16;24.80;41.20
51613;DHT22;37694;51.748;14.326;2022-08-03T14:59:42;24.80;41.30
51613;DHT22;37694;51.748;14.326;2022-08-03T15:02:07;24.90;41.50
51613;DHT22;37694;51.748;14.326;2022-08-03T15:04:33;24.90;41.80
51613;DHT22;37694;51.748;14.326;2022-08-03T15:06:59;24.90;42.00
51613;DHT22;37694;51.748;14.326;2022-08-03T15:09:24;24.90;42.00
51613;DHT22;37694;51.748;14.326;2022-08-03T15:11:50;25.00;42.20
51613;DHT22;37694;51.748;14.326;2022-08-03T15:14:15;25.00;42.30
51613;DHT22;37694;51.748;14.326;2022-08-03T15:16:41;25.10;42.30
51613;DHT22;37694;51.748;14.326;2022-08-03T15:19:07;25.10;42.30
51613;DHT22;37694;51.748;14.326;2022-08-03T15:21:33;25.10;42.40
51613;DHT22;37694;51.748;14.326;2022-08-03T15:23:58;25.10;42.40
51613;DHT22;37694;51.748;14.326;2022-08-03T15:26:24;25.20;42.60
51613;DHT22;37694;51.748;14.326;2022-08-03T15:28:50;25.20;42.60
51613;DHT22;37694;51.748;14.326;2022-08-03T15:31:20;25.20;42.50
51613;DHT22;37694;51.748;14.326;2022-08-03T15:33:46;25.20;42.60
51613;DHT22;37694;51.748;14.326;2022-08-03T15:36:11;25.20;42.40
51613;DHT22;37694;51.748;14.326;2022-08-03T15:38:37;25.20;42.30
51613;DHT22;37694;51.748;14.326;2022-08-03T15:41:03;25.30;42.50
51613;DHT22;37694;51.748;14.326;2022-08-03T15:43:28;25.30;42.30
51613;DHT22;37694;51.748;14.326;2022-08-03T15:45:54;25.30;42.40
51613;DHT22;37694;51.748;14.326;2022-08-03T15:48:19;25.30;42.30
51613;DHT22;37694;51.748;14.326;2022-08-03T15:50:47;25.40;42.30
51613;DHT22;37694;51.748;14.326;2022-08-03T15:53:13;25.40;42.20
51613;DHT22;37694;51.748;14.326;2022-08-03T15:55:38;25.40;42.10
51613;DHT22;37694;51.748;14.326;2022-08-03T15:58:04;25.40;42.10